createdAt,value
2023-09-09T00:00:38.301Z,100161.61
2023-09-09T00:03:06.602Z,100158.48
2023-09-09T00:05:34.996Z,100157.68
2023-09-09T00:15:39.780Z,100159.67
2023-09-09T00:18:07.496Z,100158.02
2023-09-09T00:20:40.516Z,100155.14
2023-09-09T00:23:11.166Z,100157.73
2023-09-09T00:25:39.262Z,100158.85
2023-09-09T00:28:07.652Z,100156.51
2023-09-09T00:30:35.401Z,100155.52
2023-09-09T00:33:04.004Z,100148.70
2023-09-09T00:35:34.212Z,100155.25
2023-09-09T00:38:02.206Z,100151.99
2023-09-09T00:40:30.137Z,100147.18
2023-09-09T00:42:57.788Z,100147.78
2023-09-09T00:45:27.153Z,100143.95
2023-09-09T00:47:56.362Z,100141.16
2023-09-09T00:50:24.649Z,100141.17
2023-09-09T00:52:52.272Z,100138.16
2023-09-09T00:55:20.096Z,100132.61
2023-09-09T00:57:47.756Z,100132.30
2023-09-09T01:00:15.816Z,100131.64
2023-09-09T01:02:43.634Z,100129.62
2023-09-09T01:05:11.742Z,100131.33
2023-09-09T01:07:46.391Z,100131.42
2023-09-09T01:10:15.888Z,100129.08
2023-09-09T01:12:43.586Z,100127.86
2023-09-09T01:15:11.948Z,100127.88
2023-09-09T01:17:39.860Z,100130.00
2023-09-09T01:20:10.968Z,100134.90
2023-09-09T01:22:38.670Z,100131.44
2023-09-09T01:25:06.788Z,100134.81
2023-09-09T01:27:34.718Z,100132.28
2023-09-09T01:30:02.366Z,100130.52
2023-09-09T01:32:30.135Z,100123.48
2023-09-09T01:34:59.196Z,100126.02
2023-09-09T01:37:27.510Z,100128.19
2023-09-09T01:39:55.401Z,100130.03
2023-09-09T01:42:23.130Z,100137.58
2023-09-09T01:44:51.154Z,100144.52
2023-09-09T01:47:18.761Z,100146.71
2023-09-09T01:49:46.606Z,100150.16
2023-09-09T01:52:14.251Z,100148.08
2023-09-09T01:54:42.073Z,100148.70
2023-09-09T01:57:09.703Z,100152.63
2023-09-09T01:59:37.650Z,100148.55
2023-09-09T02:02:05.370Z,100145.06
2023-09-09T02:04:33.086Z,100147.71
2023-09-09T02:07:00.660Z,100143.48
2023-09-09T02:09:28.308Z,100139.90
2023-09-09T02:11:55.937Z,100139.74
2023-09-09T02:14:24.553Z,100141.02
2023-09-09T02:16:52.247Z,100142.13
2023-09-09T02:19:19.878Z,100138.82
2023-09-09T02:21:47.656Z,100139.85
2023-09-09T02:24:15.642Z,100143.23
2023-09-09T02:26:43.262Z,100141.98
2023-09-09T02:29:10.901Z,100143.64
2023-09-09T02:31:38.538Z,100146.93
2023-09-09T02:34:06.268Z,100146.43
2023-09-09T02:36:33.987Z,100147.78
2023-09-09T02:39:01.875Z,100148.44
2023-09-09T02:41:30.763Z,100153.81
2023-09-09T02:43:58.388Z,100157.77
2023-09-09T02:46:26.346Z,100161.77
2023-09-09T02:48:54.051Z,100167.94
2023-09-09T02:51:21.777Z,100163.95
2023-09-09T02:53:49.418Z,100163.89
2023-09-09T02:56:17.348Z,100165.34
2023-09-09T02:58:45.112Z,100169.80
2023-09-09T03:01:13.010Z,100171.09
2023-09-09T03:03:40.984Z,100169.66
2023-09-09T03:06:11.695Z,100169.45
2023-09-09T03:08:39.449Z,100176.00
2023-09-09T03:11:07.184Z,100175.46
2023-09-09T03:13:35.463Z,100180.23
2023-09-09T03:16:05.116Z,100181.33
2023-09-09T03:18:33.153Z,100179.25
2023-09-09T03:21:01.061Z,100179.68
2023-09-09T03:23:28.745Z,100183.89
2023-09-09T03:25:56.451Z,100187.43
2023-09-09T03:28:24.224Z,100190.54
2023-09-09T03:30:59.649Z,100192.60
2023-09-09T03:33:29.717Z,100190.55
2023-09-09T03:35:57.427Z,100191.78
2023-09-09T03:38:25.113Z,100194.89
2023-09-09T03:40:52.848Z,100198.92
2023-09-09T03:43:20.720Z,100197.36
2023-09-09T03:45:54.186Z,100196.71
2023-09-09T03:48:22.082Z,100198.42
2023-09-09T03:50:49.858Z,100195.77
2023-09-09T03:53:17.675Z,100194.35
2023-09-09T03:55:45.550Z,100193.98
2023-09-09T03:58:13.265Z,100196.53
2023-09-09T04:00:41.044Z,100199.21
2023-09-09T04:03:10.151Z,100199.02
2023-09-09T04:05:37.968Z,100203.58
2023-09-09T04:08:10.518Z,100205.11
2023-09-09T04:10:38.455Z,100207.00
2023-09-09T04:13:07.066Z,100211.61
2023-09-09T04:15:35.102Z,100203.17
2023-09-09T04:18:02.929Z,100195.19
2023-09-09T04:20:30.677Z,100190.23
2023-09-09T04:22:58.783Z,100190.71
2023-09-09T04:25:27.573Z,100188.64
2023-09-09T04:27:56.977Z,100195.12
2023-09-09T04:30:24.779Z,100202.04
2023-09-09T04:32:52.664Z,100203.94
2023-09-09T04:35:20.546Z,100208.60
2023-09-09T04:37:51.442Z,100200.98
2023-09-09T04:40:20.854Z,100199.06
2023-09-09T04:42:48.940Z,100200.26
2023-09-09T04:45:16.850Z,100198.06
2023-09-09T04:47:44.784Z,100193.95
2023-09-09T04:50:13.141Z,100193.61
2023-09-09T04:52:41.263Z,100198.34
2023-09-09T04:55:09.558Z,100209.18
2023-09-09T04:57:37.367Z,100201.48
2023-09-09T05:00:08.394Z,100192.02
2023-09-09T05:02:37.804Z,100197.88
2023-09-09T05:05:07.062Z,100199.09
2023-09-09T05:07:37.052Z,100197.26
2023-09-09T05:10:07.828Z,100198.80
2023-09-09T05:12:40.121Z,100198.34
2023-09-09T05:15:11.569Z,100196.31
2023-09-09T05:17:40.140Z,100197.91
2023-09-09T05:20:08.990Z,100194.33
2023-09-09T05:22:38.111Z,100195.77
2023-09-09T05:25:06.718Z,100201.48
2023-09-09T05:27:34.550Z,100209.79
2023-09-09T05:30:02.473Z,100212.00
2023-09-09T05:32:31.228Z,100214.79
2023-09-09T05:34:59.420Z,100217.10
2023-09-09T05:37:27.927Z,100211.89
2023-09-09T05:39:56.032Z,100217.02
2023-09-09T05:42:24.837Z,100209.55
2023-09-09T05:44:53.145Z,100207.66
2023-09-09T05:47:21.689Z,100207.46
2023-09-09T05:49:50.636Z,100210.98
2023-09-09T05:52:18.850Z,100209.89
2023-09-09T05:54:46.788Z,100213.20
2023-09-09T05:57:14.784Z,100210.77
2023-09-09T05:59:42.958Z,100217.34
2023-09-09T06:02:13.102Z,100213.18
2023-09-09T06:04:41.283Z,100223.02
2023-09-09T06:07:09.584Z,100224.55
2023-09-09T06:09:37.459Z,100231.29
2023-09-09T06:12:05.928Z,100237.69
2023-09-09T06:14:34.320Z,100238.90
2023-09-09T06:17:03.934Z,100236.88
2023-09-09T06:19:32.011Z,100239.92
2023-09-09T06:22:00.081Z,100237.33
2023-09-09T06:24:28.977Z,100236.17
2023-09-09T06:26:57.841Z,100243.61
2023-09-09T06:29:27.464Z,100246.04
2023-09-09T06:31:55.834Z,100242.79
2023-09-09T06:34:24.099Z,100242.02
2023-09-09T06:36:52.317Z,100247.23
2023-09-09T06:39:21.169Z,100250.70
2023-09-09T06:41:51.887Z,100259.77
2023-09-09T06:44:26.627Z,100256.98
2023-09-09T06:46:57.883Z,100258.20
2023-09-09T06:49:27.916Z,100260.16
2023-09-09T06:51:57.783Z,100258.73
2023-09-09T06:54:27.899Z,100262.31
2023-09-09T06:56:58.923Z,100261.77
2023-09-09T06:59:28.943Z,100267.09
2023-09-09T07:01:59.242Z,100267.57
2023-09-09T07:04:29.997Z,100270.96
2023-09-09T07:07:12.022Z,100269.18
2023-09-09T07:09:44.964Z,100271.18
2023-09-09T07:12:15.435Z,100277.13
2023-09-09T07:14:46.017Z,100274.40
2023-09-09T07:17:16.969Z,100283.81
2023-09-09T07:19:47.942Z,100285.00
2023-09-09T07:22:18.794Z,100284.55
2023-09-09T07:24:49.462Z,100288.04
2023-09-09T07:27:19.971Z,100293.22
2023-09-09T07:29:50.996Z,100292.37
2023-09-09T07:32:23.561Z,100295.95
2023-09-09T07:34:53.977Z,100305.08
2023-09-09T07:37:23.882Z,100315.73
2023-09-09T07:47:17.556Z,100320.52
2023-09-09T07:57:25.732Z,100337.55
2023-09-09T07:59:53.566Z,100340.95
2023-09-09T08:02:21.248Z,100347.38
2023-09-09T08:04:49.057Z,100339.02
2023-09-09T08:07:16.799Z,100348.22
2023-09-09T08:09:44.909Z,100342.25
2023-09-09T08:12:12.825Z,100346.20
2023-09-09T08:14:42.646Z,100346.27
2023-09-09T08:17:10.737Z,100354.78
2023-09-09T08:19:38.621Z,100348.39
2023-09-09T08:22:06.735Z,100337.65
2023-09-09T08:24:34.637Z,100347.31
2023-09-09T08:27:02.569Z,100348.05
2023-09-09T08:29:30.463Z,100351.15
2023-09-09T08:31:58.391Z,100347.66
2023-09-09T08:34:26.712Z,100354.84
2023-09-09T08:36:54.375Z,100349.23
2023-09-09T08:39:22.656Z,100359.83
2023-09-09T08:42:15.117Z,100360.37
2023-09-09T08:45:20.216Z,100350.42
2023-09-09T08:55:30.447Z,100358.50
2023-09-09T08:57:58.425Z,100361.69
2023-09-09T09:00:31.557Z,100353.70
2023-09-09T09:02:59.179Z,100348.77
2023-09-09T09:05:27.421Z,100358.21
2023-09-09T09:07:57.323Z,100355.39
2023-09-09T09:10:26.782Z,100363.20
2023-09-09T09:12:55.058Z,100364.65
2023-09-09T09:15:23.259Z,100354.69
2023-09-09T09:25:22.322Z,100378.38
2023-09-09T09:35:35.523Z,100372.36
2023-09-09T09:38:07.396Z,100377.42
2023-09-09T09:40:36.633Z,100372.41
2023-09-09T09:43:04.755Z,100370.93
2023-09-09T09:47:06.279Z,100371.45
2023-09-09T09:49:38.213Z,100373.47
2023-09-09T09:52:25.703Z,100374.37
2023-09-09T09:54:54.570Z,100377.39
2023-09-09T09:57:23.140Z,100367.81
2023-09-09T09:59:51.113Z,100376.83
2023-09-09T10:02:38.169Z,100380.80
2023-09-09T10:05:06.725Z,100384.18
2023-09-09T10:07:34.958Z,100382.12
2023-09-09T10:10:10.560Z,100386.42
2023-09-09T10:12:53.985Z,100387.00
2023-09-09T10:15:22.806Z,100379.34
2023-09-09T10:17:52.252Z,100382.59
2023-09-09T10:20:22.006Z,100379.61
2023-09-09T10:22:51.416Z,100393.04
2023-09-09T10:25:19.949Z,100391.06
2023-09-09T10:27:47.822Z,100384.58
2023-09-09T10:30:15.614Z,100391.48
2023-09-09T10:32:43.456Z,100393.15
2023-09-09T10:35:11.580Z,100387.72
2023-09-09T10:37:39.551Z,100393.80
2023-09-09T10:40:09.263Z,100395.65
2023-09-09T10:42:41.251Z,100393.77
2023-09-09T10:45:25.370Z,100397.73
2023-09-09T10:55:37.524Z,100401.98
2023-09-09T10:58:08.040Z,100399.96
2023-09-09T11:00:43.036Z,100394.30
2023-09-09T11:03:23.500Z,100401.15
2023-09-09T11:05:59.004Z,100403.67
2023-09-09T11:08:37.215Z,100400.30
2023-09-09T11:11:10.963Z,100400.63
2023-09-09T11:13:43.114Z,100404.62
2023-09-09T11:16:36.301Z,100397.63
2023-09-09T11:19:11.940Z,100395.23
2023-09-09T11:21:41.461Z,100405.66
2023-09-09T11:24:09.706Z,100401.70
2023-09-09T11:26:44.494Z,100408.13
2023-09-09T11:29:21.488Z,100398.09
2023-09-09T11:31:57.797Z,100408.34
2023-09-09T11:34:33.528Z,100403.20
2023-09-09T11:37:02.686Z,100408.86
2023-09-09T11:39:30.565Z,100410.79
2023-09-09T11:41:58.237Z,100410.39
2023-09-09T11:44:25.914Z,100394.15
2023-09-09T11:46:53.645Z,100396.92
2023-09-09T11:49:21.567Z,100404.20
2023-09-09T11:51:49.201Z,100402.45
2023-09-09T11:54:21.285Z,100404.95
2023-09-09T11:56:49.147Z,100406.49
2023-09-09T11:59:16.981Z,100409.41
2023-09-09T12:01:45.829Z,100406.20
2023-09-09T12:04:16.938Z,100404.36
2023-09-09T12:06:46.754Z,100408.73
2023-09-09T12:09:15.278Z,100411.81
2023-09-09T12:11:43.195Z,100410.67
2023-09-09T12:14:14.168Z,100411.73
2023-09-09T12:16:41.961Z,100406.10
2023-09-09T12:19:14.919Z,100409.71
2023-09-09T12:21:46.731Z,100403.31
2023-09-09T12:24:14.510Z,100405.61
2023-09-09T12:26:51.590Z,100406.66
2023-09-09T12:29:19.357Z,100402.55
2023-09-09T12:31:58.592Z,100402.11
2023-09-09T12:34:27.171Z,100408.15
2023-09-09T12:41:45.460Z,100404.08
2023-09-09T12:44:13.108Z,100407.33
2023-09-09T12:46:40.795Z,100412.70
2023-09-09T12:49:08.553Z,100409.79
2023-09-09T12:51:38.909Z,100409.69
2023-09-09T12:54:06.636Z,100415.76
2023-09-09T12:56:34.388Z,100414.14
2023-09-09T12:59:02.157Z,100407.45
2023-09-09T13:01:29.875Z,100402.52
2023-09-09T13:03:57.632Z,100407.64
2023-09-09T13:06:25.265Z,100405.96
2023-09-09T13:08:53.100Z,100413.17
2023-09-09T13:11:20.874Z,100410.71
2023-09-09T13:13:48.551Z,100406.79
2023-09-09T13:16:16.943Z,100411.37
2023-09-09T13:18:44.961Z,100411.08
2023-09-09T13:21:12.792Z,100412.96
2023-09-09T13:23:40.724Z,100412.67
2023-09-09T13:26:08.579Z,100419.81
2023-09-09T13:28:36.261Z,100416.55
2023-09-09T13:31:04.167Z,100414.73
2023-09-09T13:33:31.864Z,100417.04
2023-09-09T13:36:01.524Z,100409.31
2023-09-09T13:38:30.292Z,100407.63
2023-09-09T13:40:58.251Z,100410.25
2023-09-09T13:43:26.378Z,100409.46
2023-09-09T13:45:55.303Z,100412.73
2023-09-09T13:48:23.833Z,100416.92
2023-09-09T13:50:51.858Z,100416.20
2023-09-09T13:53:19.629Z,100414.42
2023-09-09T13:55:47.373Z,100419.70
2023-09-09T13:58:15.009Z,100418.23
2023-09-09T14:00:42.815Z,100419.79
2023-09-09T14:03:10.651Z,100430.77
2023-09-09T14:05:38.443Z,100427.55
2023-09-09T14:08:06.343Z,100428.74
2023-09-09T14:10:35.127Z,100438.06
2023-09-09T14:13:02.788Z,100432.05
2023-09-09T14:15:32.509Z,100434.51
2023-09-09T14:18:00.444Z,100433.14
2023-09-09T14:20:28.119Z,100436.75
2023-09-09T14:22:55.840Z,100439.39
2023-09-09T14:25:23.520Z,100438.61
2023-09-09T14:27:51.140Z,100452.31
2023-09-09T14:30:19.028Z,100449.19
2023-09-09T14:32:46.864Z,100449.80
2023-09-09T14:35:14.627Z,100453.26
2023-09-09T14:37:42.273Z,100459.83
2023-09-09T14:40:10.515Z,100454.42
2023-09-09T14:42:39.712Z,100455.68
2023-09-09T14:45:08.184Z,100461.29
2023-09-09T14:47:35.840Z,100462.79
2023-09-09T14:50:04.401Z,100462.86
2023-09-09T14:52:32.160Z,100468.39
2023-09-09T14:54:59.842Z,100462.86
2023-09-09T14:57:27.655Z,100465.91
2023-09-09T14:59:55.744Z,100465.91
2023-09-09T15:02:24.722Z,100465.89
2023-09-09T15:04:52.524Z,100465.15
2023-09-09T15:07:21.722Z,100466.70
2023-09-09T15:09:49.792Z,100466.73
2023-09-09T15:12:17.521Z,100467.70
2023-09-09T15:14:45.229Z,100468.27
2023-09-09T15:17:13.189Z,100473.20
2023-09-09T15:19:41.045Z,100470.59
2023-09-09T15:22:09.788Z,100473.57
2023-09-09T15:24:37.446Z,100477.93
2023-09-09T15:27:05.400Z,100472.61
2023-09-09T15:29:33.429Z,100479.54
2023-09-09T15:32:01.187Z,100478.34
2023-09-09T15:34:29.004Z,100481.15
2023-09-09T15:36:56.756Z,100481.03
2023-09-09T15:39:24.418Z,100482.49
2023-09-09T15:41:52.180Z,100482.60
2023-09-09T15:44:19.934Z,100486.20
2023-09-09T15:46:47.768Z,100488.59
2023-09-09T15:49:18.281Z,100490.23
2023-09-09T15:51:46.614Z,100494.27
2023-09-09T15:54:14.886Z,100497.89
2023-09-09T15:56:42.730Z,100502.15
2023-09-09T15:59:10.518Z,100505.84
2023-09-09T16:01:38.735Z,100506.60
2023-09-09T16:04:06.764Z,100506.65
2023-09-09T16:06:34.665Z,100505.39
2023-09-09T16:09:03.708Z,100510.69
2023-09-09T16:11:31.436Z,100510.82
2023-09-09T16:14:02.203Z,100512.85
2023-09-09T16:16:30.187Z,100514.39
2023-09-09T16:18:57.999Z,100515.70
2023-09-09T16:21:25.782Z,100516.38
2023-09-09T16:23:53.638Z,100519.31
2023-09-09T16:26:21.897Z,100520.39
2023-09-09T16:28:50.072Z,100520.70
2023-09-09T16:31:18.097Z,100519.33
2023-09-09T16:33:45.881Z,100520.58
2023-09-09T16:36:13.771Z,100523.44
2023-09-09T16:38:41.790Z,100529.45
2023-09-09T16:41:09.809Z,100530.80
2023-09-09T16:43:39.356Z,100535.23
2023-09-09T16:46:07.338Z,100542.08
2023-09-09T16:48:35.358Z,100544.46
2023-09-09T16:51:04.047Z,100547.13
2023-09-09T16:53:32.963Z,100550.58
2023-09-09T16:56:02.833Z,100551.95
2023-09-09T16:58:31.534Z,100549.27
2023-09-09T17:00:59.894Z,100552.17
2023-09-09T17:03:28.060Z,100557.74
2023-09-09T17:05:58.066Z,100558.86
2023-09-09T17:08:28.657Z,100560.04
2023-09-09T17:10:56.710Z,100563.55
2023-09-09T17:13:24.562Z,100563.60
2023-09-09T17:15:52.735Z,100570.55
2023-09-09T17:18:21.653Z,100574.55
2023-09-09T17:20:51.586Z,100575.77
2023-09-09T17:23:19.672Z,100579.61
2023-09-09T17:25:47.806Z,100585.71
2023-09-09T17:28:16.465Z,100584.93
2023-09-09T17:30:44.919Z,100589.70
2023-09-09T17:33:13.875Z,100589.97
2023-09-09T17:35:43.214Z,100592.92
2023-09-09T17:38:11.050Z,100594.48
2023-09-09T17:40:41.523Z,100596.84
2023-09-09T17:43:12.555Z,100598.94
2023-09-09T17:45:43.608Z,100602.70
2023-09-09T17:48:15.372Z,100605.46
2023-09-09T17:50:45.859Z,100607.20
2023-09-09T17:53:16.853Z,100608.71
2023-09-09T17:55:47.950Z,100609.31
2023-09-09T17:58:19.269Z,100609.17
2023-09-09T18:00:49.980Z,100613.48
2023-09-09T18:03:20.914Z,100616.15
2023-09-09T18:05:51.260Z,100615.83
2023-09-09T18:08:21.924Z,100615.89
2023-09-09T18:10:53.272Z,100617.30
2023-09-09T18:13:22.691Z,100618.32
2023-09-09T18:15:53.918Z,100621.07
2023-09-09T18:18:24.316Z,100628.36
2023-09-09T18:20:54.341Z,100632.26
2023-09-09T18:23:24.967Z,100637.40
2023-09-09T18:25:58.594Z,100642.09
2023-09-09T18:28:29.445Z,100649.19
2023-09-09T18:31:05.063Z,100649.17
2023-09-09T18:33:35.975Z,100658.92
2023-09-09T18:36:06.353Z,100652.48
2023-09-09T18:38:37.257Z,100658.35
2023-09-09T18:47:42.411Z,100655.03
2023-09-09T18:50:10.365Z,100656.98
2023-09-09T18:52:37.544Z,100658.60
2023-09-09T18:55:05.394Z,100660.24
2023-09-09T18:57:33.056Z,100655.63
2023-09-09T19:00:00.035Z,100658.44
2023-09-09T19:02:27.318Z,100656.04
2023-09-09T19:04:54.924Z,100659.64
2023-09-09T19:07:36.198Z,100656.31
2023-09-09T19:10:04.580Z,100662.60
2023-09-09T19:12:32.788Z,100663.02
2023-09-09T19:15:00.004Z,100665.14
2023-09-09T19:17:27.572Z,100667.91
2023-09-09T19:19:55.498Z,100668.65
2023-09-09T19:22:24.340Z,100666.92
2023-09-09T19:24:53.726Z,100673.55
2023-09-09T19:27:21.010Z,100677.50
2023-09-09T19:29:51.789Z,100676.90
2023-09-09T19:32:18.728Z,100676.83
2023-09-09T19:34:47.013Z,100683.03
2023-09-09T19:37:14.003Z,100681.38
2023-09-09T19:39:41.144Z,100678.83
2023-09-09T19:42:10.240Z,100680.14
2023-09-09T19:44:37.550Z,100683.67
2023-09-09T19:47:04.950Z,100687.02
2023-09-09T19:49:32.253Z,100690.40
2023-09-09T19:51:59.462Z,100696.48
2023-09-09T19:54:26.512Z,100696.70
2023-09-09T19:56:54.376Z,100699.91
2023-09-09T19:59:23.399Z,100701.09
2023-09-09T20:01:50.752Z,100704.29
2023-09-09T20:04:18.191Z,100703.20
2023-09-09T20:06:45.592Z,100703.02
2023-09-09T20:09:14.847Z,100701.51
2023-09-09T20:11:41.827Z,100707.36
2023-09-09T20:14:10.170Z,100708.88
2023-09-09T20:16:37.285Z,100709.10
2023-09-09T20:19:04.500Z,100708.27
2023-09-09T20:21:31.728Z,100708.23
2023-09-09T20:23:58.883Z,100708.36
2023-09-09T20:26:26.031Z,100708.55
2023-09-09T20:28:52.952Z,100703.39
2023-09-09T20:31:19.949Z,100703.83
2023-09-09T20:33:49.497Z,100701.90
2023-09-09T20:36:16.789Z,100707.11
2023-09-09T20:38:44.502Z,100709.86
2023-09-09T20:41:12.769Z,100712.10
2023-09-09T20:43:39.781Z,100714.33
2023-09-09T20:46:10.827Z,100718.11
2023-09-09T20:48:38.781Z,100716.02
2023-09-09T20:51:06.111Z,100720.91
2023-09-09T20:53:35.988Z,100717.23
2023-09-09T20:56:12.894Z,100720.50
2023-09-09T20:58:41.037Z,100726.27
2023-09-09T21:01:08.697Z,100719.58
2023-09-09T21:03:36.068Z,100722.16
2023-09-09T21:06:03.690Z,100720.13
2023-09-09T21:08:31.053Z,100721.25
2023-09-09T21:10:58.209Z,100722.88
2023-09-09T21:13:25.889Z,100725.17
2023-09-09T21:15:54.260Z,100725.02
2023-09-09T21:18:21.141Z,100727.44
2023-09-09T21:20:48.159Z,100730.13
2023-09-09T21:23:15.374Z,100730.27
2023-09-09T21:25:42.509Z,100730.91
2023-09-09T21:28:09.324Z,100728.84
2023-09-09T21:30:37.703Z,100729.26
2023-09-09T21:33:06.026Z,100727.80
2023-09-09T21:35:33.213Z,100735.04
2023-09-09T21:38:00.354Z,100734.52
2023-09-09T21:40:27.886Z,100736.30
2023-09-09T21:42:55.387Z,100739.31
2023-09-09T21:45:24.400Z,100740.69
2023-09-09T21:47:52.135Z,100741.17
2023-09-09T21:50:19.349Z,100743.91
2023-09-09T21:52:47.510Z,100742.53
2023-09-09T21:55:16.561Z,100743.06
2023-09-09T21:57:43.625Z,100745.44
2023-09-09T22:00:22.347Z,100744.84
2023-09-09T22:04:56.865Z,100756.79
2023-09-09T22:07:24.858Z,100751.06
2023-09-09T22:09:52.639Z,100753.98
2023-09-09T22:12:20.485Z,100747.96
2023-09-09T22:14:48.389Z,100752.98
2023-09-09T22:17:16.279Z,100750.88
2023-09-09T22:19:44.542Z,100754.46
2023-09-09T22:22:13.156Z,100754.52
2023-09-09T22:24:40.984Z,100751.94
2023-09-09T22:27:08.928Z,100754.51
2023-09-09T22:29:36.815Z,100753.80
2023-09-09T22:32:05.489Z,100748.81
2023-09-09T22:41:49.814Z,100743.95
2023-09-09T22:51:49.767Z,100744.95
2023-09-09T22:54:17.577Z,100743.11
2023-09-09T22:56:45.395Z,100741.77
2023-09-09T23:06:10.764Z,100743.50
2023-09-09T23:08:38.887Z,100746.71
2023-09-09T23:18:50.581Z,100744.95
2023-09-09T23:21:19.592Z,100748.14
2023-09-09T23:23:48.306Z,100744.11
2023-09-09T23:34:00.466Z,100753.74
2023-09-09T23:36:28.606Z,100756.67
2023-09-09T23:38:56.351Z,100759.76
2023-09-09T23:41:24.075Z,100758.55
2023-09-09T23:43:51.814Z,100756.09
2023-09-09T23:46:19.665Z,100758.07
2023-09-09T23:48:47.506Z,100753.43
2023-09-09T23:51:15.352Z,100751.30
2023-09-09T23:53:43.182Z,100753.08
2023-09-09T23:56:10.999Z,100750.75
2023-09-09T23:58:38.971Z,100751.23
